Time;durP1;ratioP1;P1;durP2;ratioP2;P2;SDS_P1;SDS_P2;PMS_P1;PMS_P2;Temp;Humidity;BMP_temperature;BMP_pressure;BME280_temperature;BME280_humidity;BME280_pressure;Samples;Min_cycle;Max_cycle;Signal;HPM_P1;HPM_P2
2022/01/06 00:01:01;;;;;;;4.00;3.47;;;;;;;2.01;100.00;95944.41;5006090;28;20065;-59
2022/01/06 00:03:31;;;;;;;8.60;3.95;;;;;;;2.16;100.00;95955.50;5008057;28;20080;-61
2022/01/06 00:06:05;;;;;;;4.40;3.50;;;;;;;1.87;100.00;95945.34;5003941;28;20068;-61
2022/01/06 00:08:35;;;;;;;7.15;3.88;;;;;;;1.90;100.00;95937.34;5007500;28;20058;-59
2022/01/06 00:11:05;;;;;;;4.83;3.87;;;;;;;2.07;100.00;95954.38;5002839;28;20070;-61
2022/01/06 00:13:55;;;;;;;5.82;4.07;;;;;;;2.03;100.00;95950.31;5003724;28;20472;-60
2022/01/06 00:16:37;;;;;;;7.90;3.80;;;;;;;2.00;100.00;95947.94;5010392;28;20084;-55
2022/01/06 00:24:41;;;;;;;6.38;3.92;;;;;;;2.03;100.00;95952.91;5002885;28;20057;-59
2022/01/06 00:27:09;;;;;;;4.57;3.70;;;;;;;2.02;100.00;95952.06;5009797;28;20069;-60
2022/01/06 00:29:38;;;;;;;4.47;4.07;;;;;;;2.01;100.00;95950.41;5002895;28;20543;-61
2022/01/06 00:32:08;;;;;;;8.32;4.10;;;;;;;1.87;100.00;95947.94;5007979;28;20069;-55
2022/01/06 00:34:36;;;;;;;5.00;3.72;;;;;;;2.10;100.00;95956.78;5003498;28;20084;-58
2022/01/06 00:37:07;;;;;;;5.32;3.80;;;;;;;1.96;100.00;95949.91;5006880;28;20476;-58
2022/01/06 00:39:36;;;;;;;5.35;3.47;;;;;;;1.98;100.00;95953.22;5003733;28;20080;-61
2022/01/06 00:42:05;;;;;;;9.45;4.20;;;;;;;1.98;100.00;95953.22;5001720;28;20536;-59
2022/01/06 00:44:33;;;;;;;3.97;3.70;;;;;;;1.85;100.00;95963.63;5003935;28;20081;-60
2022/01/06 00:47:02;;;;;;;4.93;4.10;;;;;;;1.73;100.00;95955.84;5005889;28;20132;-58
2022/01/06 00:49:30;;;;;;;4.25;3.85;;;;;;;1.72;100.00;95964.53;5005057;28;20093;-58
2022/01/06 00:51:58;;;;;;;5.90;3.83;;;;;;;1.53;100.00;95949.38;5008681;28;20134;-56
2022/01/06 00:54:30;;;;;;;11.55;4.05;;;;;;;1.73;100.00;95968.84;5008529;28;20065;-62
2022/01/06 00:56:58;;;;;;;4.53;4.05;;;;;;;1.65;100.00;95958.91;5006247;28;20066;-63
2022/01/06 00:59:26;;;;;;;4.53;3.78;;;;;;;1.58;100.00;95965.47;5002674;28;20088;-59
2022/01/06 01:01:55;;;;;;;7.55;4.28;;;;;;;1.65;100.00;95970.19;5004722;28;20105;-58
2022/01/06 01:04:24;;;;;;;4.57;3.70;;;;;;;1.57;100.00;95975.03;5006425;28;20082;-60
2022/01/06 01:06:52;;;;;;;3.83;3.38;;;;;;;1.55;100.00;95983.84;5000209;28;20626;-61
2022/01/06 01:09:20;;;;;;;6.22;3.97;;;;;;;1.57;100.00;95977.63;5007461;28;20069;-61
2022/01/06 01:11:50;;;;;;;5.50;4.05;;;;;;;1.72;100.00;95985.34;5003284;28;20076;-58
2022/01/06 01:14:25;;;;;;;6.67;4.07;;;;;;;1.49;100.00;95985.09;5002499;28;20073;-61
2022/01/06 01:16:57;;;;;;;6.57;4.05;;;;;;;1.58;100.00;95988.84;5003455;28;20491;-61
2022/01/06 01:19:25;;;;;;;6.15;4.05;;;;;;;1.62;100.00;95985.13;5004680;28;20081;-61
2022/01/06 01:21:54;;;;;;;6.32;4.25;;;;;;;1.64;100.00;95994.47;5007978;28;20385;-58
2022/01/06 01:24:23;;;;;;;4.70;4.15;;;;;;;1.60;100.00;96000.81;5005714;28;20528;-59
2022/01/06 01:26:53;;;;;;;5.18;3.80;;;;;;;1.63;100.00;96003.22;5002881;28;20444;-59
2022/01/06 01:29:22;;;;;;;5.90;4.38;;;;;;;1.66;100.00;95995.22;5002062;28;20074;-60
2022/01/06 01:31:53;;;;;;;10.48;4.50;;;;;;;1.48;100.00;95998.19;5008791;28;20475;-56
2022/01/06 01:34:24;;;;;;;11.38;4.38;;;;;;;1.55;100.00;95994.25;5006508;28;20092;-60
2022/01/06 01:36:54;;;;;;;4.82;3.97;;;;;;;1.53;100.00;95999.56;5008070;28;20499;-62
2022/01/06 01:39:24;;;;;;;4.70;4.03;;;;;;;1.63;100.00;95998.03;5004471;28;20122;-54
2022/01/06 01:41:54;;;;;;;4.93;4.10;;;;;;;1.66;100.00;95990.03;5002109;28;20076;-59
2022/01/06 01:44:22;;;;;;;4.15;3.85;;;;;;;1.60;100.00;95992.19;5005472;28;20092;-61
2022/01/06 01:47:00;;;;;;;4.68;4.10;;;;;;;1.57;100.00;95988.03;5002159;28;20065;-58
2022/01/06 01:49:43;;;;;;;3.92;3.63;;;;;;;1.59;100.00;95996.56;5002990;28;20092;-61
2022/01/06 01:52:11;;;;;;;4.85;4.40;;;;;;;1.54;100.00;95997.78;5007736;28;20081;-61
2022/01/06 01:54:40;;;;;;;4.63;4.07;;;;;;;1.53;100.00;96009.94;5001653;28;20062;-59
2022/01/06 01:57:09;;;;;;;6.80;4.20;;;;;;;1.58;100.00;96013.09;4998341;28;20066;-58
2022/01/06 01:59:38;;;;;;;5.67;4.40;;;;;;;1.64;100.00;96015.28;5005674;28;20073;-58
2022/01/06 02:02:08;;;;;;;5.68;4.07;;;;;;;1.66;100.00;95999.59;5005252;28;20489;-59
2022/01/06 02:04:36;;;;;;;4.47;4.07;;;;;;;1.58;100.00;95981.06;5008639;28;20544;-59
2022/01/06 02:07:05;;;;;;;5.55;4.10;;;;;;;1.66;100.00;96005.63;5009419;28;20152;-58
2022/01/06 02:09:34;;;;;;;6.47;4.63;;;;;;;1.62;100.00;96016.31;5004218;28;20073;-60
2022/01/06 02:12:03;;;;;;;4.80;4.40;;;;;;;1.60;100.00;96000.81;5011014;28;20077;-62
2022/01/06 02:14:34;;;;;;;5.28;3.97;;;;;;;1.56;100.00;96007.16;5004573;28;20073;-58
2022/01/06 02:17:03;;;;;;;5.05;3.90;;;;;;;1.67;100.00;96011.66;5006215;28;20574;-58
2022/01/06 02:19:32;;;;;;;5.90;3.95;;;;;;;1.63;100.00;96018.81;5009292;28;20477;-60
2022/01/06 02:22:02;;;;;;;4.50;3.78;;;;;;;1.70;100.00;96021.00;5009267;28;20081;-63
2022/01/06 02:24:30;;;;;;;4.18;3.83;;;;;;;1.64;100.00;96023.06;5008396;28;20073;-58
2022/01/06 02:26:59;;;;;;;5.80;4.05;;;;;;;1.64;100.00;96020.47;5014017;28;20058;-61
2022/01/06 02:29:27;;;;;;;4.72;4.10;;;;;;;1.68;100.00;96028.88;5006131;28;20061;-55
2022/01/06 02:31:58;;;;;;;5.85;3.80;;;;;;;1.56;100.00;96027.13;5008373;28;20069;-60
2022/01/06 02:34:27;;;;;;;5.57;4.03;;;;;;;1.73;100.00;96023.41;5006529;28;20085;-61
2022/01/06 02:36:55;;;;;;;4.50;3.72;;;;;;;1.75;100.00;96027.56;5006793;28;20535;-61
2022/01/06 02:39:25;;;;;;;9.82;4.45;;;;;;;1.79;100.00;96029.03;5010739;28;20073;-63
2022/01/06 02:41:53;;;;;;;5.50;4.45;;;;;;;1.74;100.00;96036.28;5006573;28;20088;-58
2022/01/06 02:44:24;;;;;;;4.05;3.75;;;;;;;1.66;100.00;96022.97;5005682;28;20111;-60
2022/01/06 02:46:53;;;;;;;6.38;4.22;;;;;;;1.71;100.00;96025.28;5003740;28;20087;-59
2022/01/06 02:49:22;;;;;;;4.68;4.28;;;;;;;1.82;100.00;96034.00;5006141;28;20648;-59
2022/01/06 02:51:51;;;;;;;7.80;4.22;;;;;;;1.58;100.00;96023.50;5006779;28;20077;-59
2022/01/06 02:54:20;;;;;;;10.80;4.60;;;;;;;1.65;100.00;96042.94;5008808;28;20149;-57
2022/01/06 02:56:50;;;;;;;4.50;4.10;;;;;;;1.55;100.00;96030.63;5003445;28;20070;-59
2022/01/06 02:59:18;;;;;;;6.93;4.30;;;;;;;1.65;100.00;96049.88;5005401;28;20062;-60
2022/01/06 03:01:47;;;;;;;5.22;4.20;;;;;;;1.55;100.00;96043.63;5006063;28;20480;-58
2022/01/06 03:04:15;;;;;;;5.72;4.13;;;;;;;1.66;100.00;96056.75;5004593;28;20460;-58
2022/01/06 03:06:44;;;;;;;6.78;4.20;;;;;;;1.69;100.00;96045.31;5007554;28;20073;-61
2022/01/06 03:09:12;;;;;;;4.75;4.30;;;;;;;1.56;100.00;96051.34;5006398;28;20096;-59
2022/01/06 03:11:43;;;;;;;5.28;3.80;;;;;;;1.67;100.00;96043.66;5005225;28;20088;-58
2022/01/06 03:14:13;;;;;;;5.75;4.20;;;;;;;1.63;100.00;96049.16;5007908;28;20134;-55
2022/01/06 03:16:41;;;;;;;4.47;3.77;;;;;;;1.63;100.00;96047.41;5004592;28;20085;-61
2022/01/06 03:19:10;;;;;;;4.53;3.92;;;;;;;1.56;100.00;96053.94;5009024;28;20689;-60
2022/01/06 03:21:38;;;;;;;4.97;4.40;;;;;;;1.54;100.00;96055.78;5005776;28;20070;-59
2022/01/06 03:24:07;;;;;;;5.50;4.50;;;;;;;1.72;100.00;96069.38;5006756;28;20066;-56
2022/01/06 03:26:35;;;;;;;5.82;4.68;;;;;;;1.72;100.00;96071.97;5005093;28;20069;-59
2022/01/06 03:29:03;;;;;;;6.07;4.28;;;;;;;1.74;100.00;96066.66;5012370;28;20069;-59
2022/01/06 03:31:33;;;;;;;5.97;4.07;;;;;;;1.69;100.00;96082.56;5002935;28;20090;-61
2022/01/06 03:34:02;;;;;;;7.35;3.97;;;;;;;1.74;100.00;96083.09;5009166;28;20115;-59
2022/01/06 03:36:30;;;;;;;4.85;4.45;;;;;;;1.66;100.00;96086.19;5005165;28;20066;-62
2022/01/06 03:38:58;;;;;;;4.22;3.88;;;;;;;1.50;100.00;96069.91;5005027;28;20073;-59
2022/01/06 03:41:27;;;;;;;6.63;4.50;;;;;;;1.59;100.00;96079.72;5006643;28;20069;-60
2022/01/06 03:43:55;;;;;;;5.07;4.40;;;;;;;1.55;100.00;96074.78;5005593;28;20144;-58
2022/01/06 03:46:25;;;;;;;4.80;4.10;;;;;;;1.59;100.00;96077.13;5006380;28;20046;-61
2022/01/06 03:48:55;;;;;;;5.57;4.68;;;;;;;1.61;100.00;96075.22;5000512;28;20080;-59
2022/01/06 03:51:24;;;;;;;4.63;4.20;;;;;;;1.55;100.00;96073.06;5006447;28;20472;-59
2022/01/06 03:53:53;;;;;;;8.02;4.68;;;;;;;1.56;100.00;96085.09;5008002;28;20627;-60
2022/01/06 03:56:21;;;;;;;7.20;4.68;;;;;;;1.70;100.00;96084.22;5006521;28;20073;-56
2022/01/06 03:58:50;;;;;;;8.40;4.80;;;;;;;1.67;100.00;96076.63;5005049;28;21489;-61
2022/01/06 04:01:18;;;;;;;5.55;4.22;;;;;;;1.63;100.00;96085.56;5010289;28;20077;-59
2022/01/06 04:03:47;;;;;;;7.50;4.97;;;;;;;1.68;100.00;96078.28;5003522;28;20074;-57
2022/01/06 04:06:17;;;;;;;5.32;4.28;;;;;;;1.66;100.00;96087.94;5005400;28;20076;-60
2022/01/06 04:08:46;;;;;;;7.18;4.47;;;;;;;1.64;100.00;96088.03;5005655;28;20082;-60
2022/01/06 04:11:14;;;;;;;4.85;4.40;;;;;;;1.58;100.00;96087.59;5005021;28;20061;-61
2022/01/06 04:13:42;;;;;;;5.90;4.78;;;;;;;1.57;100.00;96091.97;5002529;28;20077;-59
2022/01/06 04:16:14;;;;;;;4.85;4.22;;;;;;;1.56;100.00;96092.06;5011129;28;20088;-58
2022/01/06 04:18:42;;;;;;;6.80;5.10;;;;;;;1.62;100.00;96095.13;5001307;28;20149;-61
2022/01/06 04:21:11;;;;;;;6.30;4.20;;;;;;;1.49;100.00;96109.81;5004830;28;20080;-58
2022/01/06 04:23:41;;;;;;;11.45;5.47;;;;;;;1.64;100.00;96103.63;5010270;28;20065;-57
2022/01/06 04:26:09;;;;;;;4.82;4.43;;;;;;;1.66;100.00;96108.75;5002014;28;20065;-56
2022/01/06 04:28:38;;;;;;;7.95;4.80;;;;;;;1.64;100.00;96113.19;5004478;28;20089;-61
2022/01/06 04:31:06;;;;;;;4.82;4.30;;;;;;;1.67;100.00;96111.22;5008085;28;20629;-58
2022/01/06 04:33:35;;;;;;;5.75;4.18;;;;;;;1.65;100.00;96118.31;5002587;28;20457;-59
2022/01/06 04:36:04;;;;;;;5.05;4.63;;;;;;;1.70;100.00;96118.00;5002856;28;20535;-60
2022/01/06 04:38:33;;;;;;;7.07;4.45;;;;;;;1.74;100.00;96118.63;5003539;28;20065;-61
2022/01/06 04:41:03;;;;;;;6.43;4.50;;;;;;;1.70;100.00;96120.59;5003639;28;20528;-61
2022/01/06 04:43:32;;;;;;;5.53;4.03;;;;;;;1.72;100.00;96120.50;5002276;28;20135;-59
2022/01/06 04:46:00;;;;;;;7.22;5.20;;;;;;;1.79;100.00;96124.34;5005983;28;20073;-61
2022/01/06 04:48:29;;;;;;;4.20;3.90;;;;;;;1.61;100.00;96121.19;5005725;28;20477;-56
2022/01/06 04:50:57;;;;;;;5.53;5.03;;;;;;;1.77;100.00;96129.69;5003836;28;20072;-59
2022/01/06 04:53:25;;;;;;;5.20;4.68;;;;;;;1.72;100.00;96121.34;5003159;28;20069;-61
2022/01/06 04:55:56;;;;;;;5.30;4.13;;;;;;;1.55;100.00;96127.63;5004392;28;20191;-58
2022/01/06 04:58:25;;;;;;;6.32;5.07;;;;;;;1.75;100.00;96130.69;5008266;28;20088;-58
2022/01/06 05:00:54;;;;;;;7.50;5.07;;;;;;;1.67;100.00;96141.59;5000299;28;20151;-60
2022/01/06 05:03:22;;;;;;;6.03;4.53;;;;;;;1.51;100.00;96140.88;5004929;28;20499;-57
2022/01/06 05:05:51;;;;;;;5.32;4.80;;;;;;;1.65;100.00;96136.50;5001289;28;20061;-61
2022/01/06 05:08:19;;;;;;;5.28;4.80;;;;;;;1.63;100.00;96143.56;5001828;28;20100;-60
2022/01/06 05:10:51;;;;;;;7.43;4.82;;;;;;;1.63;100.00;96143.56;5005059;28;20073;-57
2022/01/06 05:13:20;;;;;;;7.22;4.55;;;;;;;1.57;100.00;96141.34;5005958;28;20092;-62
2022/01/06 05:15:49;;;;;;;4.78;4.38;;;;;;;1.65;100.00;96141.69;5005689;28;20079;-59
2022/01/06 05:18:18;;;;;;;5.85;4.88;;;;;;;1.62;100.00;96146.25;5004190;28;20068;-59
2022/01/06 05:20:46;;;;;;;5.53;5.03;;;;;;;1.56;100.00;96139.69;5002923;28;20080;-60
2022/01/06 05:23:15;;;;;;;7.53;4.88;;;;;;;1.59;100.00;96142.09;5006073;28;20073;-61
2022/01/06 05:25:43;;;;;;;6.63;4.90;;;;;;;1.48;100.00;96141.06;5004814;28;20088;-59
2022/01/06 05:28:12;;;;;;;6.70;4.75;;;;;;;1.53;100.00;96147.66;5007082;28;20093;-59
2022/01/06 05:30:40;;;;;;;5.95;4.07;;;;;;;1.44;100.00;96150.84;5004258;28;20099;-59
2022/01/06 05:33:12;;;;;;;7.70;5.25;;;;;;;1.48;100.00;96148.88;5003087;28;20069;-59
2022/01/06 05:35:41;;;;;;;5.18;4.30;;;;;;;1.42;100.00;96155.31;5003794;28;20065;-59
2022/01/06 05:38:09;;;;;;;5.20;4.30;;;;;;;1.43;100.00;96165.59;5009827;28;20065;-58
2022/01/06 05:40:38;;;;;;;4.85;4.25;;;;;;;1.50;100.00;96158.25;5002569;28;20300;-58
2022/01/06 05:43:11;;;;;;;5.43;4.80;;;;;;;1.53;100.00;96157.22;5021263;28;20462;-63
2022/01/06 05:45:40;;;;;;;6.03;4.63;;;;;;;1.55;100.00;96156.22;5005754;28;20155;-52
2022/01/06 05:48:10;;;;;;;4.78;4.30;;;;;;;1.48;100.00;96160.13;5008363;28;20065;-55
2022/01/06 05:50:38;;;;;;;5.20;4.70;;;;;;;1.55;100.00;96165.75;5013187;28;20120;-58
2022/01/06 05:53:07;;;;;;;6.90;5.25;;;;;;;1.58;100.00;96160.34;5003082;28;20062;-56
2022/01/06 05:55:35;;;;;;;4.43;4.07;;;;;;;1.58;100.00;96178.53;5005953;28;20617;-57
2022/01/06 05:58:04;;;;;;;5.25;4.75;;;;;;;1.60;100.00;96185.31;5007586;28;20062;-60
2022/01/06 06:00:32;;;;;;;5.00;4.50;;;;;;;1.65;100.00;96178.09;5004039;28;20058;-57
2022/01/06 06:03:01;;;;;;;6.47;4.60;;;;;;;1.55;100.00;96178.72;5002199;28;20092;-61
2022/01/06 06:05:31;;;;;;;6.93;5.05;;;;;;;1.58;100.00;96186.34;5015153;28;20436;-60
2022/01/06 06:07:59;;;;;;;6.63;4.90;;;;;;;1.74;100.00;96187.06;5005226;28;20061;-56
2022/01/06 06:10:28;;;;;;;4.60;3.95;;;;;;;1.67;100.00;96186.59;5009583;28;20073;-64
2022/01/06 06:12:56;;;;;;;5.18;4.68;;;;;;;1.71;100.00;96191.59;5010435;28;20069;-60
2022/01/06 06:15:24;;;;;;;5.78;4.60;;;;;;;1.60;100.00;96189.69;5008032;28;20467;-61
2022/01/06 06:17:53;;;;;;;4.95;4.55;;;;;;;1.80;100.00;96191.03;5000941;28;20073;-61
2022/01/06 06:20:21;;;;;;;5.13;4.72;;;;;;;1.65;100.00;96185.88;5011447;28;20076;-62
2022/01/06 06:22:51;;;;;;;5.75;4.45;;;;;;;1.73;100.00;96194.97;5020393;28;20054;-62
2022/01/06 06:25:20;;;;;;;4.43;4.13;;;;;;;1.71;100.00;96197.63;5013910;28;20408;-60
2022/01/06 06:27:48;;;;;;;7.43;4.47;;;;;;;1.71;100.00;96199.41;5000853;28;20062;-56
2022/01/06 06:30:17;;;;;;;4.95;4.55;;;;;;;1.52;100.00;96194.53;5007764;28;20077;-60
2022/01/06 06:32:46;;;;;;;4.60;4.20;;;;;;;1.70;100.00;96195.97;5008167;28;20069;-61
2022/01/06 06:35:14;;;;;;;4.10;3.70;;;;;;;1.62;100.00;96209.47;5016931;28;20069;-59
2022/01/06 06:37:43;;;;;;;5.03;4.50;;;;;;;1.65;100.00;96211.88;5002980;28;20065;-59
2022/01/06 06:40:13;;;;;;;4.72;4.13;;;;;;;1.43;100.00;96211.53;5007213;28;20081;-61
2022/01/06 06:42:42;;;;;;;5.43;4.75;;;;;;;1.49;100.00;96212.91;5001202;28;20064;-61
2022/01/06 06:45:11;;;;;;;4.70;4.30;;;;;;;1.42;100.00;96212.47;5007048;28;20088;-61
2022/01/06 06:47:39;;;;;;;4.00;3.70;;;;;;;1.52;100.00;96223.97;5004999;28;20460;-61
2022/01/06 06:50:09;;;;;;;6.22;5.15;;;;;;;1.49;100.00;96224.16;5006095;28;20066;-58
2022/01/06 06:52:37;;;;;;;4.03;3.72;;;;;;;1.23;100.00;96230.91;5007560;28;20088;-59
2022/01/06 06:55:06;;;;;;;4.90;4.50;;;;;;;1.31;100.00;96225.28;5007202;28;20074;-61
2022/01/06 06:57:36;;;;;;;4.05;3.75;;;;;;;1.25;100.00;96244.66;5006521;28;20077;-61
2022/01/06 07:00:05;;;;;;;5.53;5.03;;;;;;;1.33;100.00;96247.63;5004940;28;20081;-56
2022/01/06 07:02:34;;;;;;;4.40;4.10;;;;;;;1.26;100.00;96251.53;5006000;28;20527;-59
2022/01/06 07:05:03;;;;;;;4.97;4.57;;;;;;;1.37;100.00;96251.69;5006225;28;20061;-59
2022/01/06 07:07:31;;;;;;;6.13;4.20;;;;;;;1.25;100.00;96244.66;5007884;28;20081;-61
2022/01/06 07:10:00;;;;;;;4.30;4.00;;;;;;;1.30;100.00;96259.97;5010466;28;20073;-59
2022/01/06 07:12:30;;;;;;;5.35;4.50;;;;;;;1.48;100.00;96260.59;5006165;28;20472;-61
2022/01/06 07:15:02;;;;;;;4.93;4.53;;;;;;;1.26;100.00;96261.06;5006308;28;20077;-57
2022/01/06 07:17:31;;;;;;;4.28;3.90;;;;;;;1.30;100.00;96255.59;5004567;28;20076;-59
2022/01/06 07:19:59;;;;;;;4.93;4.50;;;;;;;1.39;100.00;96257.66;5007032;28;20465;-61
2022/01/06 07:22:27;;;;;;;5.25;4.78;;;;;;;1.39;100.00;96262.00;5003152;28;20082;-53
2022/01/06 07:24:56;;;;;;;5.55;4.53;;;;;;;1.45;100.00;96258.22;5008958;28;20090;-61
2022/01/06 07:27:24;;;;;;;4.80;4.40;;;;;;;1.49;100.00;96265.72;5003982;28;20061;-59
2022/01/06 07:29:52;;;;;;;4.82;4.43;;;;;;;1.58;100.00;96272.97;5002656;28;20717;-58
2022/01/06 07:32:24;;;;;;;4.28;3.97;;;;;;;1.58;100.00;96270.38;5005286;28;20503;-60
2022/01/06 07:34:57;;;;;;;4.30;4.00;;;;;;;1.52;100.00;96272.50;5004259;28;20073;-60
2022/01/06 07:37:26;;;;;;;4.20;3.90;;;;;;;1.41;100.00;96280.91;5003441;28;20090;-58
2022/01/06 07:39:55;;;;;;;4.13;3.78;;;;;;;1.53;100.00;96287.16;5006605;28;20435;-59
2022/01/06 07:42:23;;;;;;;4.78;3.88;;;;;;;1.51;100.00;96273.41;5010438;28;20065;-62
2022/01/06 07:44:51;;;;;;;4.20;3.80;;;;;;;1.46;100.00;96280.66;5012248;28;20073;-61
2022/01/06 07:47:21;;;;;;;4.50;4.10;;;;;;;1.39;100.00;96280.19;5009630;28;20715;-57
2022/01/06 07:49:50;;;;;;;4.25;3.85;;;;;;;1.40;100.00;96295.69;5007033;28;20077;-61
2022/01/06 07:52:19;;;;;;;4.68;3.78;;;;;;;1.43;100.00;96298.09;5011766;28;20080;-56
2022/01/06 07:54:47;;;;;;;4.10;3.80;;;;;;;1.54;100.00;96294.84;5013806;28;20087;-58
2022/01/06 07:57:15;;;;;;;5.75;4.45;;;;;;;1.66;100.00;96306.28;5005808;28;20062;-56
2022/01/06 07:59:44;;;;;;;4.35;4.05;;;;;;;1.50;100.00;96301.16;5009552;28;20347;-60
2022/01/06 08:02:14;;;;;;;4.43;4.05;;;;;;;1.60;100.00;96306.63;5011703;28;20065;-59
2022/01/06 08:04:44;;;;;;;4.78;4.20;;;;;;;1.51;100.00;96296.78;5006460;28;20081;-61
2022/01/06 08:07:13;;;;;;;5.15;4.10;;;;;;;1.65;100.00;96320.16;5007374;28;20073;-59
2022/01/06 08:09:45;;;;;;;4.10;3.70;;;;;;;1.51;100.00;96308.00;5005544;28;20066;-58
2022/01/06 08:12:13;;;;;;;4.18;3.70;;;;;;;1.64;100.00;96308.94;5010876;28;20066;-59
2022/01/06 08:14:42;;;;;;;4.50;4.10;;;;;;;1.86;100.00;96320.66;5016442;28;20084;-60
2022/01/06 08:17:10;;;;;;;4.50;4.10;;;;;;;1.78;100.00;96325.47;5005122;28;20449;-60
2022/01/06 08:19:38;;;;;;;4.50;4.10;;;;;;;1.87;100.00;96324.91;5011396;28;20070;-56
2022/01/06 08:22:08;;;;;;;5.80;4.88;;;;;;;1.65;100.00;96333.16;5006201;28;20074;-60
2022/01/06 08:24:37;;;;;;;4.82;4.43;;;;;;;1.83;100.00;96319.06;5003190;28;20066;-57
2022/01/06 08:27:08;;;;;;;4.10;3.80;;;;;;;1.94;100.00;96325.38;5004927;28;20107;-61
2022/01/06 08:29:37;;;;;;;4.03;3.72;;;;;;;2.01;100.00;96329.25;5002132;28;20061;-61
2022/01/06 08:32:06;;;;;;;5.32;4.13;;;;;;;2.22;100.00;96333.09;5004345;28;20073;-58
2022/01/06 08:34:35;;;;;;;4.93;4.43;;;;;;;2.14;100.00;96325.78;5005018;28;20069;-61
2022/01/06 08:37:04;;;;;;;7.00;4.53;;;;;;;2.14;100.00;96327.56;5009289;28;20460;-58
2022/01/06 08:39:34;;;;;;;4.43;3.95;;;;;;;2.19;100.00;96332.47;5001181;28;20066;-59
2022/01/06 08:42:03;;;;;;;5.65;4.72;;;;;;;2.20;100.00;96332.34;5002866;28;20141;-58
2022/01/06 08:44:31;;;;;;;4.55;4.15;;;;;;;2.40;100.00;96343.28;5001569;28;20076;-61
2022/01/06 08:47:01;;;;;;;6.68;4.63;;;;;;;2.25;100.00;96338.13;5005081;28;20069;-57
2022/01/06 08:49:31;;;;;;;4.65;4.00;;;;;;;2.46;100.00;96345.50;5007781;28;20451;-59
2022/01/06 08:51:59;;;;;;;4.03;3.72;;;;;;;2.12;100.00;96338.03;5005904;28;20080;-63
2022/01/06 08:54:28;;;;;;;4.60;4.10;;;;;;;2.27;100.00;96340.59;5000371;28;20070;-58
2022/01/06 08:56:57;;;;;;;4.97;4.47;;;;;;;2.33;100.00;96343.66;5005544;28;20065;-58
2022/01/06 08:59:26;;;;;;;8.43;4.55;;;;;;;2.53;100.00;96352.81;5001966;28;20159;-59
2022/01/06 09:01:54;;;;;;;4.63;4.20;;;;;;;2.44;100.00;96349.97;5004076;28;20069;-59
2022/01/06 09:04:23;;;;;;;4.00;3.70;;;;;;;2.45;100.00;96342.06;5005470;28;20097;-58
2022/01/06 09:06:52;;;;;;;4.93;4.15;;;;;;;2.72;100.00;96355.09;5002663;28;20330;-58
2022/01/06 09:09:21;;;;;;;5.55;4.53;;;;;;;2.94;100.00;96361.50;5004942;28;20061;-60
2022/01/06 09:11:50;;;;;;;4.27;3.90;;;;;;;2.85;100.00;96362.91;5005786;28;20547;-59
2022/01/06 09:14:19;;;;;;;4.18;3.70;;;;;;;2.82;100.00;96366.56;5005944;28;20916;-61
2022/01/06 09:16:48;;;;;;;3.80;3.50;;;;;;;2.84;100.00;96366.47;5003344;28;20076;-60
2022/01/06 09:19:17;;;;;;;4.03;3.63;;;;;;;2.84;100.00;96369.06;5005417;28;20078;-62
2022/01/06 09:21:45;;;;;;;4.80;4.22;;;;;;;2.78;100.00;96372.88;5002281;28;20062;-61
2022/01/06 09:24:13;;;;;;;4.05;3.75;;;;;;;2.95;100.00;96368.38;5005410;28;20076;-61
2022/01/06 09:26:42;;;;;;;7.32;3.92;;;;;;;3.29;100.00;96377.41;4999301;28;20065;-61
2022/01/06 09:29:13;;;;;;;4.65;4.20;;;;;;;3.40;100.00;96379.28;5003383;28;20065;-62
2022/01/06 09:31:43;;;;;;;4.00;3.60;;;;;;;3.26;100.00;96375.00;5002474;28;20077;-64
2022/01/06 09:34:11;;;;;;;3.90;3.60;;;;;;;2.99;100.00;96385.47;5000386;28;20082;-63
2022/01/06 09:36:41;;;;;;;6.03;4.50;;;;;;;2.89;100.00;96385.25;5010413;28;20077;-62
2022/01/06 09:39:11;;;;;;;3.60;3.30;;;;;;;2.87;100.00;96387.09;5005289;28;20460;-56
2022/01/06 09:41:40;;;;;;;6.95;3.63;;;;;;;2.90;100.00;96397.31;5002090;28;20080;-61
2022/01/06 09:44:08;;;;;;;4.68;4.15;;;;;;;2.80;100.00;96388.44;5007001;28;20065;-58
2022/01/06 09:46:58;;;;;;;4.75;4.20;;;;;;;2.82;100.00;96391.75;4999746;28;20512;-61
2022/01/06 09:49:26;;;;;;;4.68;4.28;;;;;;;2.91;100.00;96391.16;5002116;28;20093;-60
2022/01/06 09:51:55;;;;;;;4.20;3.80;;;;;;;3.10;100.00;96401.25;5000824;28;20089;-62
2022/01/06 09:54:23;;;;;;;6.85;3.88;;;;;;;3.31;100.00;96394.63;5001590;28;20074;-59
2022/01/06 09:56:52;;;;;;;5.30;4.53;;;;;;;3.62;100.00;96395.19;5004404;28;20074;-63
2022/01/06 09:59:20;;;;;;;5.03;4.60;;;;;;;3.78;100.00;96402.78;5008623;28;20061;-57
2022/01/06 10:01:49;;;;;;;4.30;3.80;;;;;;;3.57;100.00;96395.47;5003253;28;20065;-62
2022/01/06 10:04:25;;;;;;;4.03;3.72;;;;;;;3.56;100.00;96396.41;5004490;28;20093;-59
2022/01/06 10:07:01;;;;;;;4.53;3.60;;;;;;;3.90;100.00;96406.34;5003042;28;20481;-61
2022/01/06 10:09:30;;;;;;;4.75;4.32;;;;;;;3.37;100.00;96401.16;5001216;28;20148;-59
2022/01/06 10:11:59;;;;;;;3.55;3.33;;;;;;;3.59;100.00;96407.59;5004022;28;20081;-61
2022/01/06 10:14:40;;;;;;;4.28;3.88;;;;;;;3.40;100.00;96405.34;5004011;28;20073;-60
2022/01/06 10:17:09;;;;;;;3.70;3.38;;;;;;;3.54;100.00;96411.34;5003868;28;20070;-58
2022/01/06 10:19:41;;;;;;;4.40;4.00;;;;;;;3.44;100.00;96410.28;5000559;28;20081;-61
2022/01/06 10:22:15;;;;;;;4.55;4.15;;;;;;;3.29;100.00;96413.88;5007965;28;20081;-61
2022/01/06 10:24:45;;;;;;;4.57;4.18;;;;;;;3.48;100.00;96418.72;5005895;28;20445;-62
2022/01/06 10:27:14;;;;;;;4.07;3.67;;;;;;;3.63;100.00;96417.69;5005763;28;20070;-58
2022/01/06 10:29:45;;;;;;;5.07;4.57;;;;;;;3.56;100.00;96409.44;5009235;28;20069;-58
2022/01/06 10:32:15;;;;;;;5.05;4.40;;;;;;;3.57;100.00;96420.72;5007400;28;20065;-61
2022/01/06 10:34:47;;;;;;;4.95;4.45;;;;;;;3.56;100.00;96430.31;5007852;28;20088;-62
2022/01/06 10:37:20;;;;;;;4.05;3.60;;;;;;;3.42;100.00;96421.75;5006482;28;20061;-62
2022/01/06 10:39:50;;;;;;;4.32;3.92;;;;;;;3.57;100.00;96429.34;5003383;28;20702;-63
2022/01/06 10:42:22;;;;;;;4.43;4.03;;;;;;;3.24;100.00;96429.00;5007357;28;20074;-56
2022/01/06 10:44:53;;;;;;;6.05;3.83;;;;;;;2.98;100.00;96423.69;5005390;28;20531;-60
2022/01/06 10:47:31;;;;;;;;;;;;;;;2.99;100.00;96438.38;5006059;28;20080;-61
2022/01/06 10:50:16;;;;;;;4.50;4.10;;;;;;;3.03;100.00;96429.47;5005353;28;19964;-57
2022/01/06 10:52:46;;;;;;;4.30;3.30;;;;;;;3.09;100.00;96425.59;5003973;28;20081;-58
2022/01/06 10:55:17;;;;;;;4.18;3.58;;;;;;;3.12;100.00;96433.22;5007911;28;20076;-57
2022/01/06 10:57:53;;;;;;;5.03;4.18;;;;;;;3.15;100.00;96434.81;5010374;28;20128;-58
2022/01/06 11:00:23;;;;;;;5.15;4.65;;;;;;;3.35;100.00;96429.13;5004048;28;20081;-59
2022/01/06 11:02:52;;;;;;;4.78;4.38;;;;;;;3.41;100.00;96426.13;5006096;28;20538;-55
2022/01/06 11:05:22;;;;;;;6.93;4.20;;;;;;;3.69;100.00;96430.31;5005011;28;20636;-60
2022/01/06 11:07:50;;;;;;;4.10;3.70;;;;;;;3.58;100.00;96432.81;5007474;28;20078;-61
2022/01/06 11:10:22;;;;;;;6.22;4.10;;;;;;;3.79;100.00;96433.16;5007461;28;20085;-57
2022/01/06 11:12:51;;;;;;;5.60;5.03;;;;;;;4.17;100.00;96435.75;5006096;28;20117;-62
2022/01/06 11:15:19;;;;;;;5.82;4.25;;;;;;;3.91;100.00;96431.47;5006014;28;20070;-58
2022/01/06 11:17:48;;;;;;;4.82;4.35;;;;;;;3.91;100.00;96421.03;5009223;28;20072;-56
2022/01/06 11:20:25;;;;;;;4.90;3.70;;;;;;;4.09;100.00;96427.59;5002078;28;20488;-59
2022/01/06 11:22:58;;;;;;;3.95;3.65;;;;;;;3.85;100.00;96437.94;5004355;28;20069;-61
2022/01/06 11:25:30;;;;;;;4.57;4.18;;;;;;;3.77;100.00;96429.81;5013807;28;20091;-61
2022/01/06 11:28:04;;;;;;;5.95;4.22;;;;;;;3.87;100.00;96422.19;5002738;28;20386;-60
2022/01/06 11:30:41;;;;;;;5.35;4.68;;;;;;;4.18;100.00;96426.16;5008493;28;20073;-60
2022/01/06 11:33:09;;;;;;;5.45;4.07;;;;;;;3.93;100.00;96438.28;5004500;28;20080;-58
2022/01/06 11:35:53;;;;;;;4.88;4.40;;;;;;;4.37;100.00;96418.72;5002957;28;20065;-60
2022/01/06 11:38:23;;;;;;;8.50;4.80;;;;;;;4.55;100.00;96426.19;5002727;28;20149;-58
2022/01/06 11:40:52;;;;;;;4.57;4.18;;;;;;;4.93;100.00;96421.66;5003999;28;20073;-57
2022/01/06 11:43:21;;;;;;;5.93;4.30;;;;;;;4.60;100.00;96421.47;5007412;28;20092;-62
2022/01/06 11:46:00;;;;;;;3.72;3.42;;;;;;;4.66;100.00;96440.16;4985035;28;21790;-60
2022/01/06 11:48:29;;;;;;;4.80;4.25;;;;;;;4.88;100.00;96429.00;4989736;28;20069;-58
2022/01/06 11:50:59;;;;;;;4.13;3.67;;;;;;;4.71;100.00;96439.81;4982328;28;20081;-61